createdAt,value
2019-05-21T00:01:35.166Z,11.60
2019-05-21T00:04:03.701Z,11.60
2019-05-21T00:06:32.147Z,11.60
2019-05-21T00:09:00.567Z,11.50
2019-05-21T00:11:28.984Z,11.50
2019-05-21T00:13:57.401Z,11.40
2019-05-21T00:16:25.822Z,11.50
2019-05-21T00:18:54.240Z,11.40
2019-05-21T00:21:22.667Z,11.40
2019-05-21T00:23:51.080Z,11.40
2019-05-21T00:26:19.500Z,11.30
2019-05-21T00:29:24.252Z,11.30
2019-05-21T00:32:29.075Z,11.30
2019-05-21T00:35:38.751Z,11.20
2019-05-21T00:38:43.581Z,11.20
2019-05-21T00:41:48.440Z,11.20
2019-05-21T00:44:16.866Z,11.20
2019-05-21T00:46:45.283Z,11.10
2019-05-21T00:49:13.715Z,11.20
2019-05-21T00:51:42.140Z,11.20
2019-05-21T00:54:10.568Z,11.20
2019-05-21T00:56:38.987Z,11.20
2019-05-21T00:59:07.403Z,11.20
2019-05-21T01:01:35.844Z,11.20
2019-05-21T01:04:04.260Z,11.20
2019-05-21T01:06:32.684Z,11.20
2019-05-21T01:09:01.099Z,11.20
2019-05-21T01:11:29.515Z,11.20
2019-05-21T01:13:57.937Z,11.20
2019-05-21T01:16:26.352Z,11.20
2019-05-21T01:18:54.763Z,11.20
2019-05-21T01:21:23.180Z,11.20
2019-05-21T01:23:51.583Z,11.20
2019-05-21T01:26:20.035Z,11.20
2019-05-21T01:28:48.500Z,11.20
2019-05-21T01:31:16.908Z,11.20
2019-05-21T01:33:45.320Z,11.20
2019-05-21T01:36:13.741Z,11.10
2019-05-21T01:38:42.155Z,11.10
2019-05-21T01:41:10.564Z,11.20
2019-05-21T01:43:39.017Z,11.20
2019-05-21T01:46:07.440Z,11.20
2019-05-21T01:48:35.892Z,11.20
2019-05-21T01:51:04.360Z,11.20
2019-05-21T01:53:32.786Z,11.20
2019-05-21T01:56:01.209Z,11.20
2019-05-21T01:58:29.644Z,11.20
2019-05-21T02:00:58.078Z,11.20
2019-05-21T02:03:26.536Z,11.20
2019-05-21T02:05:55.249Z,11.20
2019-05-21T02:08:23.691Z,11.20
2019-05-21T02:10:52.122Z,11.10
2019-05-21T02:13:20.537Z,11.10
2019-05-21T02:15:48.986Z,11.10
2019-05-21T02:18:17.393Z,11.00
2019-05-21T02:20:45.824Z,11.10
2019-05-21T02:23:14.240Z,11.00
2019-05-21T02:25:42.704Z,11.00
2019-05-21T02:28:11.129Z,11.00
2019-05-21T02:30:39.653Z,10.90
2019-05-21T02:33:08.065Z,10.90
2019-05-21T02:35:52.852Z,11.00
2019-05-21T02:38:06.670Z,10.90
2019-05-21T02:40:35.152Z,10.90
2019-05-21T02:43:03.568Z,10.90
2019-05-21T02:45:31.989Z,10.80
2019-05-21T02:48:00.419Z,10.80
2019-05-21T02:50:28.862Z,10.80
2019-05-21T02:52:57.310Z,10.80
2019-05-21T02:55:25.862Z,10.80
2019-05-21T02:57:54.304Z,10.80
2019-05-21T03:00:38.747Z,10.80
2019-05-21T03:03:08.249Z,10.80
2019-05-21T03:05:36.668Z,10.80
2019-05-21T03:08:05.162Z,10.70
2019-05-21T03:10:33.645Z,10.80
2019-05-21T03:13:02.161Z,10.70
2019-05-21T03:15:30.577Z,10.70
2019-05-21T03:17:58.994Z,10.70
2019-05-21T03:20:27.413Z,10.60
2019-05-21T03:22:55.923Z,10.60
2019-05-21T03:25:24.414Z,10.60
2019-05-21T03:27:52.853Z,10.60
2019-05-21T03:30:21.418Z,10.60
2019-05-21T03:32:49.853Z,10.60
2019-05-21T03:35:18.418Z,10.60
2019-05-21T03:37:46.832Z,10.60
2019-05-21T03:40:15.905Z,10.60
2019-05-21T03:42:44.343Z,10.60
2019-05-21T03:45:13.055Z,10.60
2019-05-21T03:47:41.541Z,10.60
2019-05-21T03:50:10.635Z,10.60
2019-05-21T03:52:39.171Z,10.60
2019-05-21T03:55:08.146Z,10.60
2019-05-21T03:57:36.560Z,10.60
2019-05-21T04:00:08.221Z,10.60
2019-05-21T04:02:36.644Z,10.60
2019-05-21T04:05:06.116Z,10.60
2019-05-21T04:07:34.619Z,10.60
2019-05-21T04:10:03.679Z,10.60
2019-05-21T04:12:32.105Z,10.60
2019-05-21T04:15:07.980Z,10.60
2019-05-21T04:17:38.076Z,10.60
2019-05-21T04:20:06.917Z,10.60
2019-05-21T04:22:37.000Z,10.60
2019-05-21T04:25:06.360Z,10.60
2019-05-21T04:27:34.795Z,10.60
2019-05-21T04:30:04.278Z,10.60
2019-05-21T04:32:32.695Z,10.60
2019-05-21T04:35:01.127Z,10.60
2019-05-21T04:37:29.623Z,10.60
2019-05-21T04:39:58.044Z,10.60
2019-05-21T04:42:26.468Z,10.60
2019-05-21T04:44:54.874Z,10.50
2019-05-21T04:47:23.291Z,10.50
2019-05-21T04:49:51.749Z,10.50
2019-05-21T04:52:20.165Z,10.60
2019-05-21T04:54:48.575Z,10.60
2019-05-21T04:57:16.997Z,10.50
2019-05-21T04:59:45.462Z,10.50
2019-05-21T05:02:13.874Z,10.50
2019-05-21T05:04:42.332Z,10.50
2019-05-21T05:07:26.430Z,10.50
2019-05-21T05:09:40.949Z,10.50
2019-05-21T05:12:09.476Z,10.40
2019-05-21T05:14:37.960Z,10.40
2019-05-21T05:17:06.372Z,10.40
2019-05-21T05:19:34.816Z,10.50
2019-05-21T05:22:03.315Z,10.50
2019-05-21T05:24:31.756Z,10.50
2019-05-21T05:27:00.242Z,10.50
2019-05-21T05:29:28.665Z,10.50
2019-05-21T05:31:57.116Z,10.50
2019-05-21T05:34:25.589Z,10.50
2019-05-21T05:36:54.025Z,10.60
2019-05-21T05:39:22.436Z,10.60
2019-05-21T05:41:50.884Z,10.60
2019-05-21T05:44:19.647Z,10.60
2019-05-21T05:46:48.082Z,10.60
2019-05-21T05:49:18.148Z,10.60
2019-05-21T05:51:46.555Z,10.70
2019-05-21T05:54:15.047Z,10.70
2019-05-21T05:56:43.480Z,10.80
2019-05-21T05:59:14.305Z,10.80
2019-05-21T06:01:42.281Z,10.90
2019-05-21T06:04:10.690Z,10.90
2019-05-21T06:06:39.139Z,10.90
2019-05-21T06:09:07.536Z,10.80
2019-05-21T06:11:36.028Z,10.80
2019-05-21T06:14:04.628Z,10.80
2019-05-21T06:16:33.091Z,10.80
2019-05-21T06:19:01.517Z,10.80
2019-05-21T06:21:29.946Z,10.80
2019-05-21T06:23:58.444Z,10.80
2019-05-21T06:26:26.872Z,10.80
2019-05-21T06:28:55.295Z,10.90
2019-05-21T06:31:23.871Z,10.90
2019-05-21T06:33:52.332Z,10.90
2019-05-21T06:36:20.805Z,10.90
2019-05-21T06:38:49.240Z,11.00
2019-05-21T06:41:17.643Z,11.00
2019-05-21T06:43:46.069Z,11.00
2019-05-21T06:46:14.484Z,11.10
2019-05-21T06:48:42.917Z,11.10
2019-05-21T06:51:11.329Z,11.20
2019-05-21T06:53:39.725Z,11.20
2019-05-21T06:56:08.182Z,11.20
2019-05-21T06:58:36.646Z,11.20
2019-05-21T07:01:05.145Z,11.20
2019-05-21T07:03:33.571Z,11.10
2019-05-21T07:06:02.040Z,11.10
2019-05-21T07:08:34.578Z,11.10
2019-05-21T07:11:00.580Z,11.00
2019-05-21T07:13:31.052Z,10.90
2019-05-21T07:15:59.203Z,10.90
2019-05-21T07:18:27.607Z,10.90
2019-05-21T07:20:56.040Z,10.90
2019-05-21T07:23:24.463Z,10.80
2019-05-21T07:25:52.943Z,10.80
2019-05-21T07:28:21.370Z,10.90
2019-05-21T07:30:50.360Z,10.90
2019-05-21T07:33:18.763Z,10.90
2019-05-21T07:35:47.185Z,10.90
2019-05-21T07:38:15.608Z,10.90
2019-05-21T07:40:44.044Z,10.90
2019-05-21T07:43:12.486Z,10.90
2019-05-21T07:45:40.891Z,10.90
2019-05-21T07:48:09.325Z,10.90
2019-05-21T07:50:37.760Z,10.90
2019-05-21T07:53:06.179Z,10.90
2019-05-21T07:55:35.064Z,10.90
2019-05-21T07:58:03.618Z,10.90
2019-05-21T08:00:32.109Z,10.90
2019-05-21T08:03:00.549Z,11.00
2019-05-21T08:05:28.974Z,11.10
2019-05-21T08:07:57.417Z,11.10
2019-05-21T08:10:25.832Z,11.10
2019-05-21T08:12:54.255Z,11.10
2019-05-21T08:15:22.725Z,11.10
2019-05-21T08:17:51.144Z,11.20
2019-05-21T08:20:19.884Z,11.30
2019-05-21T08:22:48.367Z,11.20
2019-05-21T08:25:16.850Z,11.20
2019-05-21T08:27:45.274Z,11.20
2019-05-21T08:30:13.818Z,11.10
2019-05-21T08:32:42.236Z,11.10
2019-05-21T08:35:10.816Z,11.10
2019-05-21T08:37:39.235Z,11.20
2019-05-21T08:40:08.275Z,11.20
2019-05-21T08:42:36.694Z,11.20
2019-05-21T08:45:08.365Z,11.30
2019-05-21T08:47:36.856Z,11.20
2019-05-21T08:50:09.386Z,11.20
2019-05-21T08:52:38.017Z,11.00
2019-05-21T08:55:07.360Z,11.10
2019-05-21T08:57:35.918Z,11.10
2019-05-21T09:00:07.408Z,11.10
2019-05-21T09:02:35.886Z,11.10
2019-05-21T09:05:06.363Z,11.20
2019-05-21T09:07:34.844Z,11.20
2019-05-21T09:10:03.786Z,11.30
2019-05-21T09:12:32.199Z,11.40
2019-05-21T09:15:00.605Z,11.50
2019-05-21T09:17:29.017Z,11.50
2019-05-21T09:19:57.445Z,11.70
2019-05-21T09:22:25.916Z,11.80
2019-05-21T09:24:55.279Z,12.00
2019-05-21T09:27:23.693Z,12.00
2019-05-21T09:29:52.145Z,12.10
2019-05-21T09:32:20.645Z,12.10
2019-05-21T09:34:49.582Z,12.20
2019-05-21T09:37:20.073Z,12.40
2019-05-21T09:39:48.250Z,12.40
2019-05-21T09:42:16.727Z,12.40
2019-05-21T09:44:45.148Z,12.50
2019-05-21T09:47:13.560Z,12.60
2019-05-21T09:49:41.968Z,12.60
2019-05-21T09:52:10.437Z,12.70
2019-05-21T09:54:38.880Z,12.80
2019-05-21T09:57:09.048Z,12.80
2019-05-21T09:59:41.845Z,12.90
2019-05-21T10:02:11.892Z,13.10
2019-05-21T10:04:40.421Z,13.20
2019-05-21T10:07:08.851Z,13.30
2019-05-21T10:09:37.396Z,13.50
2019-05-21T10:12:06.028Z,13.50
2019-05-21T10:14:34.590Z,13.50
2019-05-21T10:17:03.131Z,13.60
2019-05-21T10:19:32.667Z,13.50
2019-05-21T10:22:01.093Z,13.40
2019-05-21T10:24:29.744Z,13.40
2019-05-21T10:26:58.156Z,13.40
2019-05-21T10:29:26.658Z,13.50
2019-05-21T10:31:55.217Z,13.60
2019-05-21T10:34:23.644Z,13.70
2019-05-21T10:36:52.136Z,13.80
2019-05-21T10:39:20.553Z,13.60
2019-05-21T10:41:48.994Z,13.70
2019-05-21T10:44:17.656Z,13.80
2019-05-21T10:46:46.454Z,13.80
2019-05-21T10:49:15.101Z,13.80
2019-05-21T10:51:43.832Z,13.80
2019-05-21T10:54:12.287Z,13.90
2019-05-21T10:56:48.042Z,13.90
2019-05-21T10:59:10.848Z,13.90
2019-05-21T11:01:43.419Z,14.00
2019-05-21T11:04:25.709Z,14.20
2019-05-21T11:06:54.272Z,14.20
2019-05-21T11:09:23.089Z,14.30
2019-05-21T11:11:51.569Z,14.30
2019-05-21T11:14:20.121Z,14.30
2019-05-21T11:16:48.533Z,14.50
2019-05-21T11:19:16.999Z,14.40
2019-05-21T11:21:45.424Z,14.30
2019-05-21T11:24:13.899Z,14.40
2019-05-21T11:26:42.445Z,14.60
2019-05-21T11:29:10.861Z,14.60
2019-05-21T11:31:55.371Z,14.70
2019-05-21T11:34:09.493Z,14.80
2019-05-21T11:36:37.899Z,14.80
2019-05-21T11:39:08.373Z,14.70
2019-05-21T11:41:37.219Z,14.80
2019-05-21T11:44:05.701Z,14.60
2019-05-21T11:46:34.188Z,14.70
2019-05-21T11:49:02.611Z,14.70
2019-05-21T11:51:31.095Z,14.70
2019-05-21T11:53:59.500Z,14.60
2019-05-21T11:56:27.902Z,14.60
2019-05-21T11:58:56.320Z,14.70
2019-05-21T12:01:24.731Z,14.60
2019-05-21T12:03:53.149Z,14.50
2019-05-21T12:06:21.585Z,14.70
2019-05-21T12:08:56.705Z,14.60
2019-05-21T12:11:20.133Z,14.50
2019-05-21T12:13:48.548Z,14.50
2019-05-21T12:16:16.984Z,14.30
2019-05-21T12:18:45.407Z,14.10
2019-05-21T12:21:13.816Z,14.10
2019-05-21T12:23:42.232Z,14.20
2019-05-21T12:26:10.664Z,14.10
2019-05-21T12:28:39.077Z,14.00
2019-05-21T12:31:07.520Z,13.90
2019-05-21T12:33:35.964Z,13.70
2019-05-21T12:36:05.144Z,13.70
2019-05-21T12:38:33.560Z,13.60
2019-05-21T12:41:02.036Z,13.50
2019-05-21T12:43:30.532Z,13.50
2019-05-21T12:45:58.944Z,13.50
2019-05-21T12:48:27.436Z,13.40
2019-05-21T12:50:55.840Z,13.40
2019-05-21T12:53:24.268Z,13.40
2019-05-21T12:55:52.675Z,13.40
2019-05-21T12:58:21.092Z,13.30
2019-05-21T13:00:49.505Z,13.40
2019-05-21T13:03:17.916Z,13.40
2019-05-21T13:05:46.331Z,13.30
2019-05-21T13:08:14.755Z,13.20
2019-05-21T13:10:43.902Z,13.20
2019-05-21T13:13:12.468Z,13.20
2019-05-21T13:15:40.864Z,13.10
2019-05-21T13:18:09.293Z,13.00
2019-05-21T13:20:37.703Z,12.90
2019-05-21T13:23:06.184Z,12.90
2019-05-21T13:25:36.127Z,12.90
2019-05-21T13:28:04.946Z,13.00
2019-05-21T13:30:33.420Z,13.00
2019-05-21T13:33:02.009Z,12.80
2019-05-21T13:35:30.428Z,12.70
2019-05-21T13:37:58.912Z,12.70
2019-05-21T13:40:27.804Z,12.60
2019-05-21T13:42:56.219Z,12.50
2019-05-21T13:45:24.672Z,12.40
2019-05-21T13:47:53.127Z,12.30
2019-05-21T13:50:21.571Z,12.30
2019-05-21T13:52:50.032Z,12.20
2019-05-21T13:55:18.576Z,12.20
2019-05-21T13:57:46.991Z,12.20
2019-05-21T14:00:33.850Z,12.20
2019-05-21T14:03:02.899Z,12.20
2019-05-21T14:05:31.441Z,12.10
2019-05-21T14:07:59.864Z,12.00
2019-05-21T14:10:28.822Z,12.00
2019-05-21T14:12:57.236Z,12.00
2019-05-21T14:15:25.644Z,12.00
2019-05-21T14:17:54.086Z,11.90
2019-05-21T14:20:22.713Z,12.00
2019-05-21T14:22:51.136Z,12.00
2019-05-21T14:25:19.558Z,12.00
2019-05-21T14:27:48.031Z,12.10
2019-05-21T14:30:16.692Z,12.00
2019-05-21T14:32:45.237Z,12.00
2019-05-21T14:35:13.805Z,12.00
2019-05-21T14:37:42.206Z,11.90
2019-05-21T14:40:11.964Z,11.90
2019-05-21T14:42:40.441Z,11.90
2019-05-21T14:45:08.957Z,11.80
2019-05-21T14:47:37.370Z,11.70
2019-05-21T14:50:08.165Z,11.70
2019-05-21T14:52:36.646Z,11.60
2019-05-21T14:55:07.274Z,11.50
2019-05-21T14:57:35.760Z,11.60
2019-05-21T15:00:08.524Z,11.50
2019-05-21T15:02:37.196Z,11.50
2019-05-21T15:05:06.257Z,11.50
2019-05-21T15:07:34.664Z,11.50
2019-05-21T15:10:03.094Z,11.50
2019-05-21T15:12:31.496Z,11.40
2019-05-21T15:15:00.991Z,11.40
2019-05-21T15:17:29.480Z,11.40
2019-05-21T15:19:59.535Z,11.40
2019-05-21T15:22:27.963Z,11.50
2019-05-21T15:24:56.380Z,11.40
2019-05-21T15:27:24.789Z,11.30
2019-05-21T15:29:53.221Z,11.30
2019-05-21T15:32:21.635Z,11.30
2019-05-21T15:34:50.124Z,11.30
2019-05-21T15:37:18.720Z,11.30
2019-05-21T15:39:47.270Z,11.20
2019-05-21T15:42:15.677Z,11.30
2019-05-21T15:44:44.082Z,11.30
2019-05-21T15:47:12.514Z,11.40
2019-05-21T15:49:40.920Z,11.40
2019-05-21T15:52:09.332Z,11.40
2019-05-21T15:54:37.744Z,11.40
2019-05-21T15:57:06.165Z,11.40
2019-05-21T15:59:34.564Z,11.40
2019-05-21T16:02:03.361Z,11.30
2019-05-21T16:04:31.776Z,11.30
2019-05-21T16:07:00.191Z,11.20
2019-05-21T16:09:28.607Z,11.20
2019-05-21T16:11:57.016Z,11.20
2019-05-21T16:14:25.432Z,11.20
2019-05-21T16:16:53.840Z,11.20
2019-05-21T16:19:22.251Z,11.10
2019-05-21T16:21:50.673Z,11.10
2019-05-21T16:24:19.104Z,11.10
2019-05-21T16:26:47.516Z,11.00
2019-05-21T16:29:15.928Z,11.00
2019-05-21T16:31:44.342Z,11.00
2019-05-21T16:34:12.920Z,11.00
2019-05-21T16:36:41.331Z,11.00
2019-05-21T16:39:09.811Z,10.90
2019-05-21T16:41:44.739Z,11.00
2019-05-21T16:44:08.524Z,10.90
2019-05-21T16:46:36.950Z,11.00
2019-05-21T16:49:05.356Z,10.90
2019-05-21T16:51:33.776Z,10.90
2019-05-21T16:54:02.188Z,10.90
2019-05-21T16:56:30.680Z,10.90
2019-05-21T16:58:59.076Z,10.90
2019-05-21T17:01:27.861Z,10.90
2019-05-21T17:03:59.768Z,10.90
2019-05-21T17:06:26.421Z,10.90
2019-05-21T17:08:54.824Z,10.90
2019-05-21T17:11:23.246Z,10.90
2019-05-21T17:13:51.644Z,11.00
2019-05-21T17:16:20.069Z,11.00
2019-05-21T17:18:48.483Z,11.00
2019-05-21T17:21:16.893Z,10.90
2019-05-21T17:23:45.297Z,10.90
2019-05-21T17:26:13.792Z,10.90
2019-05-21T17:28:42.204Z,10.90
2019-05-21T17:31:10.676Z,10.90
2019-05-21T17:33:39.092Z,10.90
2019-05-21T17:36:07.512Z,11.00
2019-05-21T17:38:36.004Z,11.00
2019-05-21T17:41:04.408Z,11.00
2019-05-21T17:43:32.819Z,11.00
2019-05-21T17:46:01.224Z,11.00
2019-05-21T17:48:29.638Z,11.00
2019-05-21T17:50:58.111Z,10.90
2019-05-21T17:53:26.529Z,11.00
2019-05-21T17:55:55.004Z,11.00
2019-05-21T17:58:23.420Z,11.00
2019-05-21T18:00:53.545Z,11.00
2019-05-21T18:03:22.027Z,11.00
2019-05-21T18:05:51.185Z,11.00
2019-05-21T18:08:20.775Z,11.10
2019-05-21T18:10:49.415Z,11.10
2019-05-21T18:13:18.072Z,11.10
2019-05-21T18:15:46.544Z,11.10
2019-05-21T18:18:15.406Z,11.10
2019-05-21T18:20:43.796Z,11.10
2019-05-21T18:23:12.293Z,11.00
2019-05-21T18:25:41.072Z,11.00
2019-05-21T18:28:09.553Z,11.00
2019-05-21T18:30:38.038Z,11.00
2019-05-21T18:33:06.579Z,11.00
2019-05-21T18:35:34.996Z,11.00
2019-05-21T18:38:03.482Z,11.00
2019-05-21T18:40:31.940Z,11.00
2019-05-21T18:43:00.412Z,11.00
2019-05-21T18:45:28.910Z,11.10
2019-05-21T18:47:57.315Z,11.00
2019-05-21T18:50:35.504Z,11.00
2019-05-21T18:52:55.997Z,11.00
2019-05-21T18:55:24.413Z,11.00
2019-05-21T18:57:52.820Z,11.00
2019-05-21T19:00:21.532Z,11.00
2019-05-21T19:02:49.959Z,11.00
2019-05-21T19:05:18.427Z,11.00
2019-05-21T19:07:46.840Z,11.00
2019-05-21T19:10:15.489Z,11.00
2019-05-21T19:12:43.972Z,11.00
2019-05-21T19:15:13.215Z,11.00
2019-05-21T19:17:41.629Z,11.00
2019-05-21T19:20:11.865Z,10.90
2019-05-21T19:22:40.416Z,10.90
2019-05-21T19:25:09.463Z,11.00
2019-05-21T19:27:37.950Z,11.00
2019-05-21T19:30:07.266Z,11.00
2019-05-21T19:32:35.685Z,11.00
2019-05-21T19:35:05.632Z,11.00
2019-05-21T19:37:34.048Z,11.00
2019-05-21T19:40:02.596Z,10.90
2019-05-21T19:42:31.106Z,10.90
2019-05-21T19:44:59.633Z,10.90
2019-05-21T19:47:28.073Z,10.90
2019-05-21T19:49:56.603Z,10.90
2019-05-21T19:52:25.020Z,10.90
2019-05-21T19:54:53.428Z,10.90
2019-05-21T19:57:23.552Z,11.00
2019-05-21T19:59:52.029Z,10.90
2019-05-21T20:02:21.416Z,10.90
2019-05-21T20:04:50.108Z,11.00
2019-05-21T20:07:19.267Z,10.90
2019-05-21T20:09:48.454Z,11.00
2019-05-21T20:12:17.111Z,11.00
2019-05-21T20:14:46.528Z,11.00
2019-05-21T20:17:16.496Z,11.00
2019-05-21T20:19:46.603Z,11.00
2019-05-21T20:22:16.231Z,11.00
2019-05-21T20:24:44.667Z,11.00
2019-05-21T20:27:13.076Z,10.90
2019-05-21T20:29:42.129Z,10.90
2019-05-21T20:32:12.311Z,10.90
2019-05-21T20:34:51.005Z,10.90
2019-05-21T20:37:20.154Z,10.90
2019-05-21T20:39:49.919Z,10.90
2019-05-21T20:42:21.249Z,10.80
2019-05-21T20:44:50.271Z,10.80
2019-05-21T20:47:19.016Z,10.80
2019-05-21T20:49:48.764Z,10.80
2019-05-21T20:52:18.916Z,10.80
2019-05-21T20:54:47.516Z,10.80
2019-05-21T20:57:16.761Z,10.80
2019-05-21T20:59:45.167Z,10.80
2019-05-21T21:02:14.399Z,10.80
2019-05-21T21:04:42.876Z,10.70
2019-05-21T21:07:11.285Z,10.70
2019-05-21T21:09:39.770Z,10.70
2019-05-21T21:12:09.522Z,10.70
2019-05-21T21:14:39.379Z,10.70
2019-05-21T21:17:10.007Z,10.70
2019-05-21T21:19:39.324Z,10.70
2019-05-21T21:22:08.106Z,10.70
2019-05-21T21:24:38.063Z,10.70
2019-05-21T21:27:07.883Z,10.70
2019-05-21T21:29:36.293Z,10.80
2019-05-21T21:32:05.048Z,10.80
2019-05-21T21:34:33.690Z,10.80
2019-05-21T21:37:03.728Z,10.80
2019-05-21T21:39:32.304Z,10.80
2019-05-21T21:42:01.181Z,10.80
2019-05-21T21:44:34.219Z,10.80
2019-05-21T21:47:00.948Z,10.80
2019-05-21T21:49:31.097Z,10.80
2019-05-21T21:51:59.694Z,10.90
2019-05-21T21:54:29.580Z,10.90
2019-05-21T21:56:58.095Z,10.80
2019-05-21T21:59:26.789Z,10.80
2019-05-21T22:01:59.076Z,10.70
2019-05-21T22:04:31.993Z,10.70
2019-05-21T22:07:00.777Z,10.70
2019-05-21T22:09:33.554Z,10.70
2019-05-21T22:12:03.562Z,10.70
2019-05-21T22:14:49.114Z,10.70
2019-05-21T22:17:04.248Z,10.70
2019-05-21T22:19:33.828Z,10.70
2019-05-21T22:22:02.339Z,10.70
2019-05-21T22:24:30.753Z,10.70
2019-05-21T22:26:59.247Z,10.70
2019-05-21T22:29:28.019Z,10.70
2019-05-21T22:31:56.573Z,10.70
2019-05-21T22:34:25.807Z,10.70
2019-05-21T22:36:54.311Z,10.70
2019-05-21T22:39:24.364Z,10.70
2019-05-21T22:41:52.770Z,10.70
2019-05-21T22:44:21.187Z,10.70
2019-05-21T22:46:50.147Z,10.70
2019-05-21T22:49:18.643Z,10.70
2019-05-21T22:51:47.291Z,10.70
2019-05-21T22:54:15.703Z,10.70
2019-05-21T22:56:44.117Z,10.80
2019-05-21T22:59:12.536Z,10.80
2019-05-21T23:01:41.576Z,10.70
2019-05-21T23:04:10.242Z,10.70
2019-05-21T23:06:38.724Z,10.80
2019-05-21T23:09:08.357Z,10.70
2019-05-21T23:11:37.141Z,10.70
2019-05-21T23:14:05.689Z,10.70
2019-05-21T23:16:34.336Z,10.60
2019-05-21T23:19:03.785Z,10.70
2019-05-21T23:21:34.256Z,10.70
2019-05-21T23:24:03.369Z,10.70
2019-05-21T23:26:33.500Z,10.70
2019-05-21T23:29:03.243Z,10.70
2019-05-21T23:31:32.103Z,10.70
2019-05-21T23:34:01.253Z,10.70
2019-05-21T23:36:30.243Z,10.70
2019-05-21T23:38:58.959Z,10.70
2019-05-21T23:41:28.551Z,10.70
2019-05-21T23:43:56.972Z,10.70
2019-05-21T23:46:25.713Z,10.70
2019-05-21T23:48:54.137Z,10.70
2019-05-21T23:51:22.549Z,10.70
2019-05-21T23:53:51.109Z,10.70
2019-05-21T23:56:19.882Z,10.70
2019-05-21T23:58:48.475Z,10.60
